createdAt,value
2016-10-18T00:00:02.090Z,1014.14
2016-10-18T00:01:02.063Z,1014.16
2016-10-18T00:02:02.052Z,1014.13
2016-10-18T00:03:01.996Z,1014.16
2016-10-18T00:04:01.987Z,1014.19
2016-10-18T00:05:01.949Z,1014.17
2016-10-18T00:06:02.047Z,1014.18
2016-10-18T00:07:01.906Z,1014.18
2016-10-18T00:08:01.860Z,1014.13
2016-10-18T00:09:01.828Z,1014.13
2016-10-18T00:10:02.264Z,1014.15
2016-10-18T00:11:01.776Z,1014.15
2016-10-18T00:12:01.842Z,1014.13
2016-10-18T00:14:01.689Z,1014.09
2016-10-18T00:16:01.637Z,1014.08
2016-10-18T00:17:01.820Z,1014.07
2016-10-18T00:18:01.584Z,1014.12
2016-10-18T00:19:01.557Z,1014.12
2016-10-18T00:20:01.524Z,1014.11
2016-10-18T00:21:01.507Z,1014.06
2016-10-18T00:22:01.474Z,1014.08
2016-10-18T00:23:01.446Z,1014.07
2016-10-18T00:24:01.418Z,1014.06
2016-10-18T00:25:01.389Z,1014.08
2016-10-18T00:26:01.710Z,1014.09
2016-10-18T00:27:01.329Z,1014.05
2016-10-18T00:28:01.329Z,1014.07
2016-10-18T00:29:04.313Z,1014.06
2016-10-18T00:30:01.257Z,1014.08
2016-10-18T00:31:01.227Z,1014.07
2016-10-18T00:32:01.196Z,1014.12
2016-10-18T00:33:01.166Z,1014.12
2016-10-18T00:34:01.142Z,1014.14
2016-10-18T00:36:01.227Z,1014.14
2016-10-18T00:37:01.053Z,1014.13
2016-10-18T00:38:01.024Z,1014.19
2016-10-18T00:39:01.000Z,1014.17
2016-10-18T00:40:00.976Z,1014.2
2016-10-18T00:41:00.941Z,1014.18
2016-10-18T00:42:00.917Z,1014.2
2016-10-18T00:43:00.888Z,1014.22
2016-10-18T00:44:00.870Z,1014.24
2016-10-18T00:45:00.827Z,1014.21
2016-10-18T00:47:00.772Z,1014.22
2016-10-18T00:48:00.744Z,1014.22
2016-10-18T00:49:00.723Z,1014.2
2016-10-18T00:50:00.688Z,1014.23
2016-10-18T00:51:00.670Z,1014.24
2016-10-18T00:52:00.687Z,1014.27
2016-10-18T00:53:00.604Z,1014.24
2016-10-18T00:54:00.624Z,1014.23
2016-10-18T00:55:00.570Z,1014.21
2016-10-18T00:56:00.521Z,1014.21
2016-10-18T00:57:00.499Z,1014.21
2016-10-18T00:58:00.466Z,1014.22
2016-10-18T00:59:00.444Z,1014.25
2016-10-18T01:00:00.462Z,1014.22
2016-10-18T01:01:00.417Z,1014.21
2016-10-18T01:02:00.359Z,1014.22
2016-10-18T01:04:00.295Z,1014.23
2016-10-18T01:06:00.243Z,1014.24
2016-10-18T01:07:00.243Z,1014.24
2016-10-18T01:08:00.211Z,1014.24
2016-10-18T01:09:00.184Z,1014.2
2016-10-18T01:10:00.223Z,1014.23
2016-10-18T01:11:00.188Z,1014.23
2016-10-18T01:12:00.213Z,1014.23
2016-10-18T01:13:00.167Z,1014.23
2016-10-18T01:14:00.014Z,1014.24
2016-10-18T01:14:59.997Z,1014.21
2016-10-18T01:15:59.971Z,1014.19
2016-10-18T01:16:59.941Z,1014.2
2016-10-18T01:17:59.924Z,1014.17
2016-10-18T01:18:59.885Z,1014.18
2016-10-18T01:19:59.857Z,1014.16
2016-10-18T01:20:59.833Z,1014.14
2016-10-18T01:21:59.792Z,1014.17
2016-10-18T01:22:59.766Z,1014.14
2016-10-18T01:23:59.741Z,1014.13
2016-10-18T01:24:59.710Z,1014.15
2016-10-18T01:25:59.679Z,1014.11
2016-10-18T01:26:59.652Z,1014.12
2016-10-18T01:27:59.791Z,1014.12
2016-10-18T01:28:59.593Z,1014.15
2016-10-18T01:29:59.570Z,1014.11
2016-10-18T01:30:59.541Z,1014.12
2016-10-18T01:31:59.518Z,1014.14
2016-10-18T01:32:59.536Z,1014.07
2016-10-18T01:33:59.454Z,1014.11
2016-10-18T01:34:59.426Z,1014.11
2016-10-18T01:35:59.409Z,1014.09
2016-10-18T01:36:59.370Z,1014.11
2016-10-18T01:37:59.342Z,1014.1
2016-10-18T01:38:59.313Z,1014.1
2016-10-18T01:39:59.284Z,1014.13
2016-10-18T01:40:59.266Z,1014.13
2016-10-18T01:42:59.203Z,1014.1
2016-10-18T01:44:59.152Z,1014.11
2016-10-18T01:45:59.121Z,1014.12
2016-10-18T01:46:59.096Z,1014.06
2016-10-18T01:47:59.057Z,1014.06
2016-10-18T01:48:59.048Z,1014.04
2016-10-18T01:49:59.003Z,1014.03
2016-10-18T01:50:58.980Z,1014.05
2016-10-18T01:51:58.949Z,1014.02
2016-10-18T01:52:58.922Z,1014.03
2016-10-18T01:53:59.030Z,1013.98
2016-10-18T01:54:59.036Z,1013.97
2016-10-18T01:55:58.843Z,1014
2016-10-18T01:56:58.810Z,1013.98
2016-10-18T01:57:58.788Z,1014
2016-10-18T01:58:58.765Z,1014
2016-10-18T01:59:58.720Z,1013.99
2016-10-18T02:00:58.693Z,1013.97
2016-10-18T02:01:58.663Z,1013.96
2016-10-18T02:02:58.636Z,1013.98
2016-10-18T02:03:58.607Z,1013.95
2016-10-18T02:04:58.580Z,1013.97
2016-10-18T02:05:58.550Z,1013.96
2016-10-18T02:06:58.523Z,1013.98
2016-10-18T02:07:58.496Z,1014.02
2016-10-18T02:08:58.470Z,1013.97
2016-10-18T02:09:58.454Z,1013.98
2016-10-18T02:10:58.406Z,1013.95
2016-10-18T02:11:58.820Z,1013.99
2016-10-18T02:12:58.352Z,1014
2016-10-18T02:13:58.325Z,1013.99
2016-10-18T02:14:58.307Z,1013.98
2016-10-18T02:15:58.276Z,1013.98
2016-10-18T02:17:58.212Z,1013.98
2016-10-18T02:18:58.185Z,1014
2016-10-18T02:19:58.170Z,1014.01
2016-10-18T02:20:58.127Z,1013.95
2016-10-18T02:21:58.100Z,1013.94
2016-10-18T02:22:58.080Z,1013.98
2016-10-18T02:23:58.232Z,1014
2016-10-18T02:24:58.029Z,1013.94
2016-10-18T02:25:57.991Z,1013.97
2016-10-18T02:26:57.954Z,1013.95
2016-10-18T02:27:57.931Z,1013.9
2016-10-18T02:28:58.378Z,1013.98
2016-10-18T02:29:57.873Z,1013.93
2016-10-18T02:30:57.930Z,1013.94
2016-10-18T02:31:57.820Z,1013.95
2016-10-18T02:32:57.792Z,1013.92
2016-10-18T02:33:57.759Z,1013.94
2016-10-18T02:34:57.738Z,1013.93
2016-10-18T02:35:57.704Z,1013.91
2016-10-18T02:36:57.685Z,1013.82
2016-10-18T02:37:57.645Z,1013.82
2016-10-18T02:38:57.632Z,1013.83
2016-10-18T02:39:57.584Z,1013.8
2016-10-18T02:40:57.567Z,1013.78
2016-10-18T02:41:57.531Z,1013.8
2016-10-18T02:42:57.502Z,1013.77
2016-10-18T02:43:58.097Z,1013.8
2016-10-18T02:44:57.994Z,1013.77
2016-10-18T02:45:57.427Z,1013.79
2016-10-18T02:47:57.360Z,1013.82
2016-10-18T02:48:57.331Z,1013.78
2016-10-18T02:49:57.304Z,1013.78
2016-10-18T02:50:57.500Z,1013.76
2016-10-18T02:51:57.251Z,1013.78
2016-10-18T02:52:57.238Z,1013.76
2016-10-18T02:53:57.192Z,1013.73
2016-10-18T02:54:57.162Z,1013.77
2016-10-18T02:55:57.138Z,1013.73
2016-10-18T02:56:57.113Z,1013.76
2016-10-18T02:57:57.086Z,1013.74
2016-10-18T02:58:57.055Z,1013.77
2016-10-18T02:59:57.030Z,1013.71
2016-10-18T03:00:57.103Z,1013.75
2016-10-18T03:01:56.977Z,1013.74
2016-10-18T03:02:56.937Z,1013.76
2016-10-18T03:03:56.911Z,1013.71
2016-10-18T03:04:56.877Z,1013.68
2016-10-18T03:05:56.853Z,1013.74
2016-10-18T03:06:56.822Z,1013.68
2016-10-18T03:07:56.799Z,1013.68
2016-10-18T03:08:56.773Z,1013.66
2016-10-18T03:09:56.745Z,1013.67
2016-10-18T03:10:56.716Z,1013.66
2016-10-18T03:11:56.682Z,1013.67
2016-10-18T03:12:56.659Z,1013.66
2016-10-18T03:13:56.627Z,1013.65
2016-10-18T03:14:56.600Z,1013.67
2016-10-18T03:15:56.572Z,1013.67
2016-10-18T03:16:56.544Z,1013.65
2016-10-18T03:17:56.512Z,1013.65
2016-10-18T03:18:56.489Z,1013.63
2016-10-18T03:19:56.455Z,1013.62
2016-10-18T03:20:56.432Z,1013.6
2016-10-18T03:21:56.421Z,1013.64
2016-10-18T03:22:56.371Z,1013.66
2016-10-18T03:23:56.342Z,1013.66
2016-10-18T03:24:56.315Z,1013.63
2016-10-18T03:25:56.418Z,1013.64
2016-10-18T03:26:56.274Z,1013.64
2016-10-18T03:27:56.233Z,1013.67
2016-10-18T03:28:56.216Z,1013.68
2016-10-18T03:29:56.188Z,1013.67
2016-10-18T03:30:56.151Z,1013.69
2016-10-18T03:31:56.117Z,1013.68
2016-10-18T03:32:56.092Z,1013.68
2016-10-18T03:33:56.065Z,1013.7
2016-10-18T03:34:56.038Z,1013.63
2016-10-18T03:35:55.999Z,1013.64
2016-10-18T03:36:55.985Z,1013.59
2016-10-18T03:37:55.944Z,1013.62
2016-10-18T03:38:55.922Z,1013.58
2016-10-18T03:39:55.903Z,1013.6
2016-10-18T03:40:55.859Z,1013.61
2016-10-18T03:41:55.859Z,1013.62
2016-10-18T03:42:55.801Z,1013.57
2016-10-18T03:43:55.809Z,1013.62
2016-10-18T03:44:55.751Z,1013.6
2016-10-18T03:45:55.717Z,1013.54
2016-10-18T03:46:55.695Z,1013.46
2016-10-18T03:47:55.667Z,1013.5
2016-10-18T03:48:55.635Z,1013.46
2016-10-18T03:49:55.624Z,1013.51
2016-10-18T03:50:55.576Z,1013.46
2016-10-18T03:51:55.551Z,1013.46
2016-10-18T03:52:55.523Z,1013.47
2016-10-18T03:53:55.514Z,1013.49
2016-10-18T03:54:55.476Z,1013.47
2016-10-18T03:55:55.434Z,1013.46
2016-10-18T03:56:55.411Z,1013.47
2016-10-18T03:57:55.378Z,1013.48
2016-10-18T03:58:55.350Z,1013.5
2016-10-18T03:59:55.324Z,1013.48
2016-10-18T04:00:55.292Z,1013.45
2016-10-18T04:01:55.268Z,1013.45
2016-10-18T04:02:55.247Z,1013.4
2016-10-18T04:03:55.220Z,1013.45
2016-10-18T04:04:55.193Z,1013.45
2016-10-18T04:05:55.166Z,1013.45
2016-10-18T04:06:55.128Z,1013.45
2016-10-18T04:07:55.096Z,1013.43
2016-10-18T04:08:55.065Z,1013.46
2016-10-18T04:09:55.074Z,1013.45
2016-10-18T04:10:55.031Z,1013.44
2016-10-18T04:11:54.980Z,1013.45
2016-10-18T04:12:54.956Z,1013.42
2016-10-18T04:13:54.929Z,1013.4
2016-10-18T04:14:54.918Z,1013.45
2016-10-18T04:15:54.867Z,1013.36
2016-10-18T04:16:54.846Z,1013.37
2016-10-18T04:17:54.814Z,1013.34
2016-10-18T04:18:54.809Z,1013.37
2016-10-18T04:19:54.754Z,1013.33
2016-10-18T04:20:54.844Z,1013.32
2016-10-18T04:21:54.712Z,1013.29
2016-10-18T04:22:54.670Z,1013.29
2016-10-18T04:23:54.670Z,1013.28
2016-10-18T04:24:54.639Z,1013.28
2016-10-18T04:25:54.615Z,1013.29
2016-10-18T04:27:54.527Z,1013.24
2016-10-18T04:28:54.497Z,1013.23
2016-10-18T04:29:54.472Z,1013.26
2016-10-18T04:30:54.450Z,1013.29
2016-10-18T04:31:54.419Z,1013.29
2016-10-18T04:32:54.393Z,1013.32
2016-10-18T04:33:54.360Z,1013.29
2016-10-18T04:34:54.345Z,1013.32
2016-10-18T04:35:54.303Z,1013.36
2016-10-18T04:36:54.325Z,1013.39
2016-10-18T04:37:54.261Z,1013.44
2016-10-18T04:38:54.232Z,1013.42
2016-10-18T04:39:54.213Z,1013.39
2016-10-18T04:40:54.166Z,1013.37
2016-10-18T04:41:54.145Z,1013.35
2016-10-18T04:42:54.105Z,1013.36
2016-10-18T04:43:54.376Z,1013.33
2016-10-18T04:44:54.059Z,1013.32
2016-10-18T04:45:54.035Z,1013.32
2016-10-18T04:46:53.999Z,1013.3
2016-10-18T04:47:54.121Z,1013.25
2016-10-18T04:48:53.943Z,1013.25
2016-10-18T04:49:54.047Z,1013.28
2016-10-18T04:50:53.877Z,1013.27
2016-10-18T04:52:53.823Z,1013.27
2016-10-18T04:54:53.763Z,1013.26
2016-10-18T04:55:53.746Z,1013.26
2016-10-18T04:56:53.716Z,1013.25
2016-10-18T04:57:53.682Z,1013.26
2016-10-18T04:58:53.666Z,1013.28
2016-10-18T04:59:53.633Z,1013.25
2016-10-18T05:00:53.605Z,1013.33
2016-10-18T05:01:53.566Z,1013.32
2016-10-18T05:02:53.543Z,1013.38
2016-10-18T05:03:53.518Z,1013.34
2016-10-18T05:04:53.491Z,1013.36
2016-10-18T05:05:53.456Z,1013.31
2016-10-18T05:06:53.426Z,1013.32
2016-10-18T05:07:53.400Z,1013.3
2016-10-18T05:08:53.369Z,1013.28
2016-10-18T05:09:53.343Z,1013.29
2016-10-18T05:10:53.327Z,1013.25
2016-10-18T05:11:53.286Z,1013.24
2016-10-18T05:12:53.266Z,1013.24
2016-10-18T05:13:53.229Z,1013.23
2016-10-18T05:14:53.202Z,1013.23
2016-10-18T05:15:53.174Z,1013.24
2016-10-18T05:16:53.143Z,1013.25
2016-10-18T05:17:53.115Z,1013.22
2016-10-18T05:18:53.089Z,1013.26
2016-10-18T05:19:53.356Z,1013.24
2016-10-18T05:20:53.028Z,1013.24
2016-10-18T05:21:53.002Z,1013.26
2016-10-18T05:22:52.981Z,1013.27
2016-10-18T05:23:53.024Z,1013.26
2016-10-18T05:24:52.923Z,1013.26
2016-10-18T05:25:52.908Z,1013.24
2016-10-18T05:27:52.851Z,1013.29
2016-10-18T05:28:52.806Z,1013.26
2016-10-18T05:29:52.793Z,1013.29
2016-10-18T05:30:52.760Z,1013.26
2016-10-18T05:31:52.762Z,1013.21
2016-10-18T05:32:52.708Z,1013.28
2016-10-18T05:34:52.660Z,1013.32
2016-10-18T05:35:52.632Z,1013.32
2016-10-18T05:36:52.582Z,1013.36
2016-10-18T05:37:52.554Z,1013.3
2016-10-18T05:38:52.520Z,1013.33
2016-10-18T05:39:52.500Z,1013.28
2016-10-18T05:41:52.440Z,1013.17
2016-10-18T05:42:52.411Z,1013.19
2016-10-18T05:43:52.426Z,1013.15
2016-10-18T05:44:52.354Z,1013.18
2016-10-18T05:45:52.327Z,1013.19
2016-10-18T05:46:52.296Z,1013.18
2016-10-18T05:47:52.276Z,1013.17
2016-10-18T05:48:52.253Z,1013.22
2016-10-18T05:49:52.219Z,1013.19
2016-10-18T05:50:52.196Z,1013.18
2016-10-18T05:51:52.157Z,1013.19
2016-10-18T05:52:52.133Z,1013.15
2016-10-18T05:53:52.117Z,1013.16
2016-10-18T05:54:52.075Z,1013.09
2016-10-18T05:55:52.174Z,1013.11
2016-10-18T05:56:52.022Z,1013.15
2016-10-18T05:57:51.998Z,1013.15
2016-10-18T05:58:51.964Z,1013.18
2016-10-18T05:59:51.999Z,1013.2
2016-10-18T06:00:51.908Z,1013.2
2016-10-18T06:01:51.887Z,1013.22
2016-10-18T06:02:51.903Z,1013.23
2016-10-18T06:03:51.830Z,1013.24
2016-10-18T06:04:51.802Z,1013.23
2016-10-18T06:05:51.770Z,1013.24
2016-10-18T06:06:51.742Z,1013.22
2016-10-18T06:07:51.714Z,1013.21
2016-10-18T06:08:51.717Z,1013.21
2016-10-18T06:09:51.663Z,1013.21
2016-10-18T06:10:51.628Z,1013.22
2016-10-18T06:11:51.604Z,1013.21
2016-10-18T06:12:51.604Z,1013.22
2016-10-18T06:13:51.557Z,1013.2
2016-10-18T06:15:51.495Z,1013.27
2016-10-18T06:16:51.460Z,1013.23
2016-10-18T06:17:51.434Z,1013.25
2016-10-18T06:18:51.410Z,1013.19
2016-10-18T06:19:51.381Z,1013.23
2016-10-18T06:20:51.362Z,1013.22
2016-10-18T06:21:51.327Z,1013.25
2016-10-18T06:22:51.305Z,1013.26
2016-10-18T06:23:51.275Z,1013.27
2016-10-18T06:24:51.302Z,1013.31
2016-10-18T06:25:51.212Z,1013.32
2016-10-18T06:26:51.217Z,1013.26
2016-10-18T06:27:51.171Z,1013.26
2016-10-18T06:29:51.120Z,1013.3
2016-10-18T06:30:51.071Z,1013.3
2016-10-18T06:31:51.059Z,1013.26
2016-10-18T06:32:51.030Z,1013.29
2016-10-18T06:33:50.991Z,1013.31
2016-10-18T06:34:50.976Z,1013.3
2016-10-18T06:35:50.935Z,1013.28
2016-10-18T06:36:50.913Z,1013.28
2016-10-18T06:37:50.875Z,1013.34
2016-10-18T06:38:50.847Z,1013.3
2016-10-18T06:39:50.826Z,1013.3
2016-10-18T06:40:50.905Z,1013.33
2016-10-18T06:42:50.738Z,1013.3
2016-10-18T06:43:50.712Z,1013.34
2016-10-18T06:44:50.692Z,1013.29
2016-10-18T06:45:50.656Z,1013.31
2016-10-18T06:46:50.629Z,1013.27
2016-10-18T06:47:50.606Z,1013.29
2016-10-18T06:48:50.580Z,1013.31
2016-10-18T06:49:50.551Z,1013.29
2016-10-18T06:50:50.519Z,1013.3
2016-10-18T06:51:50.497Z,1013.28
2016-10-18T06:52:50.463Z,1013.33
2016-10-18T06:53:50.445Z,1013.33
2016-10-18T06:54:50.411Z,1013.32
2016-10-18T06:55:50.380Z,1013.28
2016-10-18T06:56:50.658Z,1013.27
2016-10-18T06:57:50.349Z,1013.27
2016-10-18T06:58:50.295Z,1013.25
2016-10-18T06:59:50.272Z,1013.21
2016-10-18T07:00:50.281Z,1013.22
2016-10-18T07:01:50.231Z,1013.26
2016-10-18T07:02:50.271Z,1013.32
2016-10-18T07:03:50.157Z,1013.23
2016-10-18T07:04:50.127Z,1013.3
2016-10-18T07:05:50.104Z,1013.27
2016-10-18T07:06:50.076Z,1013.29
2016-10-18T07:07:50.057Z,1013.31
2016-10-18T07:08:55.760Z,1013.31
2016-10-18T07:09:49.991Z,1013.31
2016-10-18T07:11:49.931Z,1013.31
2016-10-18T07:12:49.920Z,1013.31
2016-10-18T07:13:49.904Z,1013.32
2016-10-18T07:14:49.850Z,1013.27
2016-10-18T07:15:49.949Z,1013.29
2016-10-18T07:16:49.803Z,1013.32
2016-10-18T07:17:49.768Z,1013.28
2016-10-18T07:18:49.776Z,1013.33
2016-10-18T07:19:49.756Z,1013.3
2016-10-18T07:20:49.706Z,1013.35
2016-10-18T07:22:49.637Z,1013.35
2016-10-18T07:24:49.639Z,1013.33
2016-10-18T07:25:49.543Z,1013.32
2016-10-18T07:26:49.524Z,1013.32
2016-10-18T07:27:49.505Z,1013.29
2016-10-18T07:28:49.463Z,1013.29
2016-10-18T07:29:49.437Z,1013.3
2016-10-18T07:30:49.407Z,1013.31
2016-10-18T07:31:49.378Z,1013.31
2016-10-18T07:32:49.353Z,1013.32
2016-10-18T07:33:49.329Z,1013.34
2016-10-18T07:34:49.308Z,1013.31
2016-10-18T07:35:49.269Z,1013.35
2016-10-18T07:36:49.570Z,1013.35
2016-10-18T07:37:49.215Z,1013.32
2016-10-18T07:38:49.191Z,1013.31
2016-10-18T07:40:49.135Z,1013.34
2016-10-18T07:41:49.114Z,1013.31
2016-10-18T07:42:49.195Z,1013.34
2016-10-18T07:44:49.026Z,1013.3
2016-10-18T07:45:48.999Z,1013.33
2016-10-18T07:46:48.965Z,1013.3
2016-10-18T07:47:48.939Z,1013.35
2016-10-18T07:48:48.939Z,1013.32
2016-10-18T07:49:48.891Z,1013.35
2016-10-18T07:50:48.855Z,1013.33
2016-10-18T07:51:48.836Z,1013.36
2016-10-18T07:52:48.826Z,1013.35
2016-10-18T07:53:48.775Z,1013.39
2016-10-18T07:54:48.777Z,1013.35
2016-10-18T07:55:48.741Z,1013.34
2016-10-18T07:56:48.701Z,1013.34
2016-10-18T07:57:49.134Z,1013.32
2016-10-18T07:58:48.639Z,1013.33
2016-10-18T07:59:48.626Z,1013.33
2016-10-18T08:00:48.582Z,1013.29
2016-10-18T08:01:48.554Z,1013.3
2016-10-18T08:02:48.536Z,1013.31
2016-10-18T08:03:48.528Z,1013.33
2016-10-18T08:04:48.485Z,1013.32
2016-10-18T08:05:48.585Z,1013.32
2016-10-18T08:06:48.424Z,1013.27
2016-10-18T08:07:48.406Z,1013.28
2016-10-18T08:08:48.362Z,1013.28
2016-10-18T08:09:48.343Z,1013.28
2016-10-18T08:10:48.325Z,1013.25
2016-10-18T08:11:48.286Z,1013.29
2016-10-18T08:12:48.268Z,1013.28
2016-10-18T08:13:48.238Z,1013.3
2016-10-18T08:14:48.222Z,1013.32
2016-10-18T08:15:48.184Z,1013.28
2016-10-18T08:16:48.490Z,1013.29
2016-10-18T08:17:48.127Z,1013.29
2016-10-18T08:18:48.106Z,1013.31
2016-10-18T08:19:48.085Z,1013.3
2016-10-18T08:20:48.090Z,1013.25
2016-10-18T08:21:48.042Z,1013.25
2016-10-18T08:22:48.016Z,1013.23
2016-10-18T08:23:47.959Z,1013.2
2016-10-18T08:24:47.974Z,1013.23
2016-10-18T08:25:47.937Z,1013.25
2016-10-18T08:26:47.882Z,1013.23
2016-10-18T08:27:47.859Z,1013.2
2016-10-18T08:28:47.830Z,1013.24
2016-10-18T08:29:47.831Z,1013.24
2016-10-18T08:30:47.775Z,1013.18
2016-10-18T08:31:47.756Z,1013.18
2016-10-18T08:32:47.797Z,1013.21
2016-10-18T08:33:47.688Z,1013.21
2016-10-18T08:34:47.680Z,1013.23
2016-10-18T08:35:47.705Z,1013.21
2016-10-18T08:36:47.617Z,1013.23
2016-10-18T08:37:47.579Z,1013.21
2016-10-18T08:38:47.552Z,1013.23
2016-10-18T08:39:47.523Z,1013.27
2016-10-18T08:40:47.883Z,1013.21
2016-10-18T08:41:47.701Z,1013.19
2016-10-18T08:42:47.449Z,1013.23
2016-10-18T08:43:47.448Z,1013.23
2016-10-18T08:44:47.396Z,1013.17
2016-10-18T08:45:47.460Z,1013.15
2016-10-18T08:46:47.337Z,1013.13
2016-10-18T08:47:47.329Z,1013.2
2016-10-18T08:48:47.281Z,1013.17
2016-10-18T08:49:47.262Z,1013.12
2016-10-18T08:50:47.238Z,1013.15
2016-10-18T08:51:47.236Z,1013.12
2016-10-18T08:52:47.192Z,1013.11
2016-10-18T08:53:47.149Z,1013.07
2016-10-18T08:54:47.134Z,1013.15
2016-10-18T08:55:47.092Z,1013.11
2016-10-18T08:56:47.078Z,1013.13
2016-10-18T08:57:47.048Z,1013.09
2016-10-18T08:58:47.021Z,1013.09
2016-10-18T09:00:46.968Z,1013.11
2016-10-18T09:01:46.940Z,1013.07
2016-10-18T09:02:46.916Z,1013.06
2016-10-18T09:03:46.903Z,1013.04
2016-10-18T09:04:46.926Z,1013.1
2016-10-18T09:05:46.841Z,1013.09
2016-10-18T09:06:46.812Z,1013.1
2016-10-18T09:07:46.895Z,1013.06
2016-10-18T09:08:46.777Z,1013.08
2016-10-18T09:09:46.736Z,1013.08
2016-10-18T09:10:46.701Z,1013.06
2016-10-18T09:11:46.668Z,1013.11
2016-10-18T09:12:46.696Z,1013.09
2016-10-18T09:13:46.669Z,1013.05
2016-10-18T09:14:46.591Z,1013.04
2016-10-18T09:15:46.868Z,1013.07
2016-10-18T09:16:46.546Z,1013
2016-10-18T09:17:46.520Z,1013.02
2016-10-18T09:18:46.486Z,1013.07
2016-10-18T09:19:46.454Z,1013.06
2016-10-18T09:20:46.439Z,1013.03
2016-10-18T09:21:46.411Z,1013.06
2016-10-18T09:22:46.378Z,1013
2016-10-18T09:23:46.350Z,1013.03
2016-10-18T09:24:46.326Z,1013.03
2016-10-18T09:26:46.300Z,1013.08
2016-10-18T09:27:46.251Z,1013.01
2016-10-18T09:28:46.258Z,1013.02
2016-10-18T09:29:46.267Z,1013.01
2016-10-18T09:30:46.163Z,1013.05
2016-10-18T09:31:46.178Z,1013
2016-10-18T09:32:46.146Z,1012.96
2016-10-18T09:33:46.100Z,1013.04
2016-10-18T09:34:46.073Z,1013.02
2016-10-18T09:35:46.195Z,1013.06
2016-10-18T09:36:46.025Z,1013
2016-10-18T09:37:45.999Z,1012.99
2016-10-18T09:38:45.956Z,1012.96
2016-10-18T09:39:45.939Z,1012.94
2016-10-18T09:41:45.892Z,1012.93
2016-10-18T09:42:45.872Z,1012.93
2016-10-18T09:43:45.830Z,1012.91
2016-10-18T09:44:45.808Z,1012.88
2016-10-18T09:45:45.778Z,1012.85
2016-10-18T09:46:45.842Z,1012.89
2016-10-18T09:47:45.718Z,1012.84
2016-10-18T09:48:45.714Z,1012.79
2016-10-18T09:49:45.710Z,1012.81
2016-10-18T09:50:45.993Z,1012.81
2016-10-18T09:51:45.645Z,1012.8
2016-10-18T09:52:45.609Z,1012.82
2016-10-18T09:53:45.573Z,1012.81
2016-10-18T09:54:45.553Z,1012.81
2016-10-18T09:58:09.079Z,1012.81
2016-10-18T09:59:08.608Z,1012.81
2016-10-18T10:00:08.560Z,1012.78
2016-10-18T10:01:08.562Z,1012.79
2016-10-18T10:02:08.508Z,1012.81
2016-10-18T10:03:08.488Z,1012.83
2016-10-18T10:04:08.481Z,1012.75
2016-10-18T10:05:08.453Z,1012.75
2016-10-18T10:06:08.427Z,1012.68
2016-10-18T10:07:08.375Z,1012.69
2016-10-18T10:09:08.335Z,1012.65
2016-10-18T10:10:08.296Z,1012.67
2016-10-18T10:12:08.243Z,1012.64
2016-10-18T10:13:08.273Z,1012.59
2016-10-18T10:14:08.209Z,1012.62
2016-10-18T10:15:08.728Z,1012.53
2016-10-18T10:16:08.158Z,1012.59
2016-10-18T10:17:08.121Z,1012.54
2016-10-18T10:18:08.093Z,1012.49
2016-10-18T10:19:08.069Z,1012.55
2016-10-18T10:20:08.051Z,1012.54
2016-10-18T10:21:08.018Z,1012.55
2016-10-18T10:22:08.151Z,1012.56
2016-10-18T10:23:07.971Z,1012.55
2016-10-18T10:24:07.937Z,1012.57
2016-10-18T10:25:08.250Z,1012.57
2016-10-18T10:26:08.098Z,1012.53
2016-10-18T10:27:07.902Z,1012.54
2016-10-18T10:28:07.837Z,1012.49
2016-10-18T10:29:07.803Z,1012.46
2016-10-18T10:30:07.815Z,1012.47
2016-10-18T10:31:07.754Z,1012.47
2016-10-18T10:32:07.993Z,1012.47
2016-10-18T10:33:07.699Z,1012.48
2016-10-18T10:35:07.653Z,1012.4
2016-10-18T10:37:08.541Z,1012.41
2016-10-18T10:38:07.580Z,1012.39
2016-10-18T10:39:07.805Z,1012.44
2016-10-18T10:40:07.721Z,1012.5
2016-10-18T10:41:08.058Z,1012.44
2016-10-18T10:42:07.926Z,1012.44
2016-10-18T10:43:07.457Z,1012.41
2016-10-18T10:44:07.415Z,1012.44
2016-10-18T10:45:07.703Z,1012.42
2016-10-18T10:46:07.378Z,1012.35
2016-10-18T10:47:07.333Z,1012.4
2016-10-18T10:48:07.419Z,1012.34
2016-10-18T10:49:12.352Z,1012.39
2016-10-18T10:50:07.277Z,1012.37
2016-10-18T10:51:07.240Z,1012.32
2016-10-18T10:52:07.219Z,1012.32
2016-10-18T10:53:07.316Z,1012.29
2016-10-18T10:54:07.175Z,1012.28
2016-10-18T10:55:07.141Z,1012.31
2016-10-18T10:56:07.103Z,1012.3
2016-10-18T10:58:07.113Z,1012.28
2016-10-18T10:59:07.035Z,1012.28
2016-10-18T11:00:07.041Z,1012.27
2016-10-18T11:01:07.010Z,1012.19
2016-10-18T11:02:06.966Z,1012.18
2016-10-18T11:03:06.926Z,1012.21
2016-10-18T11:04:06.912Z,1012.17
2016-10-18T11:05:06.919Z,1012.15
2016-10-18T11:07:06.835Z,1012.12
2016-10-18T11:08:06.823Z,1012.13
2016-10-18T11:09:06.795Z,1012.07
2016-10-18T11:10:06.741Z,1012.09
2016-10-18T11:11:06.994Z,1012.15
2016-10-18T11:12:06.702Z,1012.11
2016-10-18T11:13:06.660Z,1012.07
2016-10-18T11:14:06.639Z,1012.1
2016-10-18T11:15:06.724Z,1012.07
2016-10-18T11:16:06.676Z,1012.07
2016-10-18T11:17:06.714Z,1012.01
2016-10-18T11:19:06.822Z,1012.06
2016-10-18T11:20:06.490Z,1012.02
2016-10-18T11:21:06.484Z,1012.01
2016-10-18T11:22:06.460Z,1012.01
2016-10-18T11:23:06.755Z,1011.94
2016-10-18T11:24:06.493Z,1011.95
2016-10-18T11:25:06.364Z,1011.96
2016-10-18T11:26:07.973Z,1012
2016-10-18T11:28:06.351Z,1011.91
2016-10-18T11:29:06.269Z,1011.91
2016-10-18T11:30:06.278Z,1011.9
2016-10-18T11:31:06.243Z,1011.86
2016-10-18T11:32:06.202Z,1011.87
2016-10-18T11:33:06.204Z,1011.85
2016-10-18T11:34:06.148Z,1011.86
2016-10-18T11:35:06.221Z,1011.84
2016-10-18T11:36:06.086Z,1011.82
2016-10-18T11:37:06.352Z,1011.86
2016-10-18T11:39:06.077Z,1011.81
2016-10-18T11:41:05.951Z,1011.77
2016-10-18T11:42:06.052Z,1011.72
2016-10-18T11:43:06.239Z,1011.7
2016-10-18T11:44:05.877Z,1011.74
2016-10-18T11:45:05.842Z,1011.65
2016-10-18T11:46:06.032Z,1011.71
2016-10-18T11:48:05.787Z,1011.68
2016-10-18T11:49:05.738Z,1011.62
2016-10-18T11:50:05.718Z,1011.66
2016-10-18T11:51:05.693Z,1011.67
2016-10-18T11:52:05.686Z,1011.66
2016-10-18T11:53:05.671Z,1011.62
2016-10-18T11:54:05.610Z,1011.65
2016-10-18T11:55:05.586Z,1011.66
2016-10-18T11:56:05.588Z,1011.66
2016-10-18T11:57:05.560Z,1011.66
2016-10-18T11:58:05.526Z,1011.68
2016-10-18T11:59:05.479Z,1011.69
2016-10-18T12:00:05.458Z,1011.66
2016-10-18T12:01:05.451Z,1011.66
2016-10-18T12:02:05.940Z,1011.64
2016-10-18T12:03:05.381Z,1011.65
2016-10-18T12:04:05.371Z,1011.65
2016-10-18T12:05:05.356Z,1011.6
2016-10-18T12:06:05.308Z,1011.59
2016-10-18T12:07:05.281Z,1011.55
2016-10-18T12:08:05.265Z,1011.54
2016-10-18T12:09:05.230Z,1011.53
2016-10-18T12:10:05.385Z,1011.52
2016-10-18T12:11:05.216Z,1011.5
2016-10-18T12:12:05.149Z,1011.52
2016-10-18T12:13:05.432Z,1011.45
2016-10-18T12:14:05.129Z,1011.42
2016-10-18T12:15:05.408Z,1011.33
2016-10-18T12:16:05.504Z,1011.36
2016-10-18T12:17:05.031Z,1011.45
2016-10-18T12:18:05.033Z,1011.35
2016-10-18T12:19:04.985Z,1011.41
2016-10-18T12:20:04.959Z,1011.46
2016-10-18T12:21:04.956Z,1011.31
2016-10-18T12:22:04.900Z,1011.33
2016-10-18T12:23:04.895Z,1011.32
2016-10-18T12:24:04.859Z,1011.39
2016-10-18T12:25:04.876Z,1011.4
2016-10-18T12:26:04.904Z,1011.39
2016-10-18T12:27:04.873Z,1011.39
2016-10-18T12:28:04.754Z,1011.34
2016-10-18T12:29:04.740Z,1011.32
2016-10-18T12:30:04.707Z,1011.29
2016-10-18T12:31:04.716Z,1011.28
2016-10-18T12:32:04.653Z,1011.25
2016-10-18T12:34:04.610Z,1011.23
2016-10-18T12:36:04.576Z,1011.15
2016-10-18T12:37:04.538Z,1011.16
2016-10-18T12:38:04.519Z,1011.18
2016-10-18T12:39:04.470Z,1011.09
2016-10-18T12:40:05.605Z,1011.1
2016-10-18T12:41:04.899Z,1011.09
2016-10-18T12:42:04.733Z,1011.07
2016-10-18T12:43:04.857Z,1011.09
2016-10-18T12:44:05.570Z,1011.09
2016-10-18T12:45:04.537Z,1011.13
2016-10-18T12:46:04.392Z,1011.09
2016-10-18T12:47:04.328Z,1011.05
2016-10-18T12:48:04.243Z,1011.05
2016-10-18T12:49:04.223Z,1011.02
2016-10-18T12:50:04.189Z,1011